sensor_id;sensor_type;location;lat;lon;timestamp;temperature;humidity
67186;HTU21D;54116;53.518;49.398;2023-12-29T00:00:38;-18.04;118.99
67186;HTU21D;54116;53.518;49.398;2023-12-29T00:03:04;-18.05;118.99
67186;HTU21D;54116;53.518;49.398;2023-12-29T00:05:30;-18.02;118.99
67186;HTU21D;54116;53.518;49.398;2023-12-29T00:07:56;-18.03;118.99
67186;HTU21D;54116;53.518;49.398;2023-12-29T00:10:23;-18.07;118.99
67186;HTU21D;54116;53.518;49.398;2023-12-29T00:12:49;-18.05;118.99
67186;HTU21D;54116;53.518;49.398;2023-12-29T00:15:17;-18.02;118.99
67186;HTU21D;54116;53.518;49.398;2023-12-29T00:17:45;-18.03;118.99
67186;HTU21D;54116;53.518;49.398;2023-12-29T00:20:12;-18.00;118.99
67186;HTU21D;54116;53.518;49.398;2023-12-29T00:22:39;-18.02;118.99
67186;HTU21D;54116;53.518;49.398;2023-12-29T00:25:05;-17.99;118.99
67186;HTU21D;54116;53.518;49.398;2023-12-29T00:27:35;-17.99;118.99
67186;HTU21D;54116;53.518;49.398;2023-12-29T00:30:02;-17.92;118.99
67186;HTU21D;54116;53.518;49.398;2023-12-29T00:32:28;-17.98;118.99
67186;HTU21D;54116;53.518;49.398;2023-12-29T00:34:55;-17.98;118.99
67186;HTU21D;54116;53.518;49.398;2023-12-29T00:37:21;-17.97;118.99
67186;HTU21D;54116;53.518;49.398;2023-12-29T00:39:47;-17.94;118.99
67186;HTU21D;54116;53.518;49.398;2023-12-29T00:42:13;-17.96;118.99
67186;HTU21D;54116;53.518;49.398;2023-12-29T00:44:40;-17.96;118.99
67186;HTU21D;54116;53.518;49.398;2023-12-29T00:47:07;-18.00;118.99
67186;HTU21D;54116;53.518;49.398;2023-12-29T00:49:33;-17.97;118.99
67186;HTU21D;54116;53.518;49.398;2023-12-29T00:51:59;-18.03;118.99
67186;HTU21D;54116;53.518;49.398;2023-12-29T00:54:25;-18.04;118.99
67186;HTU21D;54116;53.518;49.398;2023-12-29T00:56:52;-18.05;118.99
67186;HTU21D;54116;53.518;49.398;2023-12-29T00:59:19;-18.03;118.99
67186;HTU21D;54116;53.518;49.398;2023-12-29T01:01:48;-18.02;118.99
67186;HTU21D;54116;53.518;49.398;2023-12-29T01:04:14;-17.92;118.99
67186;HTU21D;54116;53.518;49.398;2023-12-29T01:06:40;-17.99;118.99
67186;HTU21D;54116;53.518;49.398;2023-12-29T01:09:06;-18.02;118.99
67186;HTU21D;54116;53.518;49.398;2023-12-29T01:11:34;-18.05;118.99
67186;HTU21D;54116;53.518;49.398;2023-12-29T01:14:00;-18.10;118.99
67186;HTU21D;54116;53.518;49.398;2023-12-29T01:16:26;-18.17;118.99
67186;HTU21D;54116;53.518;49.398;2023-12-29T01:18:52;-18.19;118.99
67186;HTU21D;54116;53.518;49.398;2023-12-29T01:21:19;-18.21;118.99
67186;HTU21D;54116;53.518;49.398;2023-12-29T01:23:45;-18.25;118.99
67186;HTU21D;54116;53.518;49.398;2023-12-29T01:26:11;-18.24;118.99
67186;HTU21D;54116;53.518;49.398;2023-12-29T01:28:37;-18.29;118.99
67186;HTU21D;54116;53.518;49.398;2023-12-29T01:31:03;-18.32;118.99
67186;HTU21D;54116;53.518;49.398;2023-12-29T01:33:30;-18.35;118.99
67186;HTU21D;54116;53.518;49.398;2023-12-29T01:35:56;-18.39;118.99
67186;HTU21D;54116;53.518;49.398;2023-12-29T01:38:22;-18.37;118.99
67186;HTU21D;54116;53.518;49.398;2023-12-29T01:40:48;-18.40;118.99
67186;HTU21D;54116;53.518;49.398;2023-12-29T01:43:14;-18.35;118.99
67186;HTU21D;54116;53.518;49.398;2023-12-29T01:45:41;-18.35;118.99
67186;HTU21D;54116;53.518;49.398;2023-12-29T01:48:07;-18.39;118.99
67186;HTU21D;54116;53.518;49.398;2023-12-29T01:50:35;-18.36;118.99
67186;HTU21D;54116;53.518;49.398;2023-12-29T01:53:01;-18.33;118.99
67186;HTU21D;54116;53.518;49.398;2023-12-29T01:55:29;-18.30;118.99
67186;HTU21D;54116;53.518;49.398;2023-12-29T01:57:56;-18.22;118.99
67186;HTU21D;54116;53.518;49.398;2023-12-29T02:00:22;-18.28;118.99
67186;HTU21D;54116;53.518;49.398;2023-12-29T02:02:48;-18.29;118.99
67186;HTU21D;54116;53.518;49.398;2023-12-29T02:05:16;-18.33;118.99
67186;HTU21D;54116;53.518;49.398;2023-12-29T02:07:43;-18.34;118.99
67186;HTU21D;54116;53.518;49.398;2023-12-29T02:10:09;-18.30;118.99
67186;HTU21D;54116;53.518;49.398;2023-12-29T02:12:39;-18.31;118.99
67186;HTU21D;54116;53.518;49.398;2023-12-29T02:15:06;-18.28;118.99
67186;HTU21D;54116;53.518;49.398;2023-12-29T02:17:40;-18.25;118.99
67186;HTU21D;54116;53.518;49.398;2023-12-29T02:20:08;-18.26;118.99
67186;HTU21D;54116;53.518;49.398;2023-12-29T02:22:35;-18.25;118.99
67186;HTU21D;54116;53.518;49.398;2023-12-29T02:25:01;-18.29;118.99
67186;HTU21D;54116;53.518;49.398;2023-12-29T02:32:39;-18.22;118.99
67186;HTU21D;54116;53.518;49.398;2023-12-29T02:35:09;-18.29;118.99
67186;HTU21D;54116;53.518;49.398;2023-12-29T02:37:37;-18.31;118.99
67186;HTU21D;54116;53.518;49.398;2023-12-29T02:40:06;-18.25;118.99
67186;HTU21D;54116;53.518;49.398;2023-12-29T02:42:33;-18.27;118.99
67186;HTU21D;54116;53.518;49.398;2023-12-29T02:44:59;-18.29;118.99
67186;HTU21D;54116;53.518;49.398;2023-12-29T02:47:26;-18.31;118.99
67186;HTU21D;54116;53.518;49.398;2023-12-29T02:49:52;-18.34;118.99
67186;HTU21D;54116;53.518;49.398;2023-12-29T02:52:19;-18.39;118.99
67186;HTU21D;54116;53.518;49.398;2023-12-29T02:54:45;-18.47;118.99
67186;HTU21D;54116;53.518;49.398;2023-12-29T02:57:11;-18.44;118.99
67186;HTU21D;54116;53.518;49.398;2023-12-29T02:59:37;-18.50;118.99
67186;HTU21D;54116;53.518;49.398;2023-12-29T03:02:04;-18.60;118.99
67186;HTU21D;54116;53.518;49.398;2023-12-29T03:04:30;-18.57;118.99
67186;HTU21D;54116;53.518;49.398;2023-12-29T03:06:57;-18.58;118.99
67186;HTU21D;54116;53.518;49.398;2023-12-29T03:09:24;-18.65;118.99
67186;HTU21D;54116;53.518;49.398;2023-12-29T03:11:50;-18.69;118.99
67186;HTU21D;54116;53.518;49.398;2023-12-29T03:14:16;-18.64;118.99
67186;HTU21D;54116;53.518;49.398;2023-12-29T03:16:43;-18.69;118.99
67186;HTU21D;54116;53.518;49.398;2023-12-29T03:19:10;-18.69;118.99
67186;HTU21D;54116;53.518;49.398;2023-12-29T03:21:36;-18.69;118.99
67186;HTU21D;54116;53.518;49.398;2023-12-29T03:24:02;-18.72;118.99
67186;HTU21D;54116;53.518;49.398;2023-12-29T03:26:28;-18.62;118.99
67186;HTU21D;54116;53.518;49.398;2023-12-29T03:28:55;-18.58;118.99
67186;HTU21D;54116;53.518;49.398;2023-12-29T03:31:21;-18.61;118.99
67186;HTU21D;54116;53.518;49.398;2023-12-29T03:33:47;-18.62;118.99
67186;HTU21D;54116;53.518;49.398;2023-12-29T03:36:13;-18.59;118.99
67186;HTU21D;54116;53.518;49.398;2023-12-29T03:38:39;-18.59;118.99
67186;HTU21D;54116;53.518;49.398;2023-12-29T03:41:05;-18.44;118.99
67186;HTU21D;54116;53.518;49.398;2023-12-29T03:43:31;-18.39;118.99
67186;HTU21D;54116;53.518;49.398;2023-12-29T03:45:57;-18.47;118.99
67186;HTU21D;54116;53.518;49.398;2023-12-29T03:48:24;-18.34;118.99
67186;HTU21D;54116;53.518;49.398;2023-12-29T03:50:50;-18.43;118.99
67186;HTU21D;54116;53.518;49.398;2023-12-29T03:53:16;-18.46;118.99
67186;HTU21D;54116;53.518;49.398;2023-12-29T03:55:42;-18.47;118.99
67186;HTU21D;54116;53.518;49.398;2023-12-29T03:58:08;-18.36;118.99
67186;HTU21D;54116;53.518;49.398;2023-12-29T04:00:36;-18.33;118.99
67186;HTU21D;54116;53.518;49.398;2023-12-29T04:03:02;-18.33;118.99
67186;HTU21D;54116;53.518;49.398;2023-12-29T04:05:28;-18.06;118.99
67186;HTU21D;54116;53.518;49.398;2023-12-29T04:07:56;-18.22;118.99
67186;HTU21D;54116;53.518;49.398;2023-12-29T04:10:22;-18.26;118.99
67186;HTU21D;54116;53.518;49.398;2023-12-29T04:12:48;-18.37;118.99
67186;HTU21D;54116;53.518;49.398;2023-12-29T04:15:14;-18.40;118.99
67186;HTU21D;54116;53.518;49.398;2023-12-29T04:17:40;-18.21;118.99
67186;HTU21D;54116;53.518;49.398;2023-12-29T04:20:06;-18.26;118.99
67186;HTU21D;54116;53.518;49.398;2023-12-29T04:22:33;-18.29;118.99
67186;HTU21D;54116;53.518;49.398;2023-12-29T04:24:59;-18.31;118.99
67186;HTU21D;54116;53.518;49.398;2023-12-29T04:27:26;-18.24;118.99
67186;HTU21D;54116;53.518;49.398;2023-12-29T04:29:52;-18.22;118.99
67186;HTU21D;54116;53.518;49.398;2023-12-29T04:32:18;-18.25;118.99
67186;HTU21D;54116;53.518;49.398;2023-12-29T04:34:44;-18.24;118.99
67186;HTU21D;54116;53.518;49.398;2023-12-29T04:37:10;-18.21;118.99
67186;HTU21D;54116;53.518;49.398;2023-12-29T04:39:37;-18.24;118.99
67186;HTU21D;54116;53.518;49.398;2023-12-29T04:42:03;-17.90;118.99
67186;HTU21D;54116;53.518;49.398;2023-12-29T04:44:29;-18.10;118.99
67186;HTU21D;54116;53.518;49.398;2023-12-29T04:46:56;-18.10;118.99
67186;HTU21D;54116;53.518;49.398;2023-12-29T04:49:22;-18.05;118.99
67186;HTU21D;54116;53.518;49.398;2023-12-29T04:51:48;-17.91;118.99
67186;HTU21D;54116;53.518;49.398;2023-12-29T04:54:14;-17.62;118.99
67186;HTU21D;54116;53.518;49.398;2023-12-29T04:56:40;-17.60;118.99
67186;HTU21D;54116;53.518;49.398;2023-12-29T04:59:06;-17.62;118.99
67186;HTU21D;54116;53.518;49.398;2023-12-29T05:01:32;-17.75;118.99
67186;HTU21D;54116;53.518;49.398;2023-12-29T05:03:58;-17.73;118.99
67186;HTU21D;54116;53.518;49.398;2023-12-29T05:06:24;-17.71;118.99
67186;HTU21D;54116;53.518;49.398;2023-12-29T05:08:50;-17.67;118.99
67186;HTU21D;54116;53.518;49.398;2023-12-29T05:11:16;-17.61;118.99
67186;HTU21D;54116;53.518;49.398;2023-12-29T05:13:42;-17.60;118.99
67186;HTU21D;54116;53.518;49.398;2023-12-29T05:16:08;-17.77;118.99
67186;HTU21D;54116;53.518;49.398;2023-12-29T05:18:34;-17.73;118.99
67186;HTU21D;54116;53.518;49.398;2023-12-29T05:21:01;-17.67;118.99
67186;HTU21D;54116;53.518;49.398;2023-12-29T05:23:28;-17.62;118.99
67186;HTU21D;54116;53.518;49.398;2023-12-29T05:25:55;-17.57;118.99
67186;HTU21D;54116;53.518;49.398;2023-12-29T05:28:21;-17.77;118.99
67186;HTU21D;54116;53.518;49.398;2023-12-29T05:30:48;-17.82;118.99
67186;HTU21D;54116;53.518;49.398;2023-12-29T05:33:14;-17.83;118.99
67186;HTU21D;54116;53.518;49.398;2023-12-29T05:35:40;-17.77;118.99
67186;HTU21D;54116;53.518;49.398;2023-12-29T05:38:06;-17.83;118.99
67186;HTU21D;54116;53.518;49.398;2023-12-29T05:40:33;-17.87;118.99
67186;HTU21D;54116;53.518;49.398;2023-12-29T05:42:59;-17.65;118.99
67186;HTU21D;54116;53.518;49.398;2023-12-29T05:45:25;-17.62;118.99
67186;HTU21D;54116;53.518;49.398;2023-12-29T05:47:52;-17.62;118.99
67186;HTU21D;54116;53.518;49.398;2023-12-29T05:50:18;-17.46;118.99
67186;HTU21D;54116;53.518;49.398;2023-12-29T05:52:44;-17.48;118.99
67186;HTU21D;54116;53.518;49.398;2023-12-29T05:55:10;-17.21;118.99
67186;HTU21D;54116;53.518;49.398;2023-12-29T05:57:37;-16.99;118.99
67186;HTU21D;54116;53.518;49.398;2023-12-29T06:00:03;-17.02;118.99
67186;HTU21D;54116;53.518;49.398;2023-12-29T06:02:30;-17.06;118.99
67186;HTU21D;54116;53.518;49.398;2023-12-29T06:04:57;-16.97;118.99
67186;HTU21D;54116;53.518;49.398;2023-12-29T06:07:23;-16.96;118.99
67186;HTU21D;54116;53.518;49.398;2023-12-29T06:09:49;-16.68;118.99
67186;HTU21D;54116;53.518;49.398;2023-12-29T06:12:16;-16.39;118.99
67186;HTU21D;54116;53.518;49.398;2023-12-29T06:14:42;-16.48;118.99
67186;HTU21D;54116;53.518;49.398;2023-12-29T06:17:08;-16.59;118.99
67186;HTU21D;54116;53.518;49.398;2023-12-29T06:19:34;-16.55;118.99
67186;HTU21D;54116;53.518;49.398;2023-12-29T06:22:02;-16.54;118.99
67186;HTU21D;54116;53.518;49.398;2023-12-29T06:24:28;-16.46;118.99
67186;HTU21D;54116;53.518;49.398;2023-12-29T06:26:55;-16.39;118.99
67186;HTU21D;54116;53.518;49.398;2023-12-29T06:29:21;-16.44;118.99
67186;HTU21D;54116;53.518;49.398;2023-12-29T06:31:47;-16.35;118.99
67186;HTU21D;54116;53.518;49.398;2023-12-29T06:34:13;-16.38;118.99
67186;HTU21D;54116;53.518;49.398;2023-12-29T06:36:39;-16.39;118.99
67186;HTU21D;54116;53.518;49.398;2023-12-29T06:39:05;-16.29;118.99
67186;HTU21D;54116;53.518;49.398;2023-12-29T06:41:32;-16.12;118.99
67186;HTU21D;54116;53.518;49.398;2023-12-29T06:43:58;-16.09;118.99
67186;HTU21D;54116;53.518;49.398;2023-12-29T06:46:24;-15.93;118.99
67186;HTU21D;54116;53.518;49.398;2023-12-29T06:48:50;-15.81;118.99
67186;HTU21D;54116;53.518;49.398;2023-12-29T06:51:17;-15.90;118.99
67186;HTU21D;54116;53.518;49.398;2023-12-29T06:53:44;-15.78;118.99
67186;HTU21D;54116;53.518;49.398;2023-12-29T06:56:17;-16.03;118.99
67186;HTU21D;54116;53.518;49.398;2023-12-29T06:58:44;-15.75;118.99
67186;HTU21D;54116;53.518;49.398;2023-12-29T07:01:10;-15.70;118.99
67186;HTU21D;54116;53.518;49.398;2023-12-29T07:03:36;-15.62;118.99
67186;HTU21D;54116;53.518;49.398;2023-12-29T07:06:03;-15.64;118.99
67186;HTU21D;54116;53.518;49.398;2023-12-29T07:08:29;-15.66;118.99
67186;HTU21D;54116;53.518;49.398;2023-12-29T07:10:55;-15.76;118.99
67186;HTU21D;54116;53.518;49.398;2023-12-29T07:13:21;-15.79;118.99
67186;HTU21D;54116;53.518;49.398;2023-12-29T07:15:47;-15.85;118.99
67186;HTU21D;54116;53.518;49.398;2023-12-29T07:18:14;-15.85;118.99
67186;HTU21D;54116;53.518;49.398;2023-12-29T07:20:41;-15.83;118.99
67186;HTU21D;54116;53.518;49.398;2023-12-29T07:23:07;-15.91;118.99
67186;HTU21D;54116;53.518;49.398;2023-12-29T07:25:34;-16.06;118.99
67186;HTU21D;54116;53.518;49.398;2023-12-29T07:28:00;-16.15;118.99
67186;HTU21D;54116;53.518;49.398;2023-12-29T07:30:26;-16.23;118.99
67186;HTU21D;54116;53.518;49.398;2023-12-29T07:32:52;-16.26;118.99
67186;HTU21D;54116;53.518;49.398;2023-12-29T07:35:18;-16.37;118.99
67186;HTU21D;54116;53.518;49.398;2023-12-29T07:37:46;-16.28;118.99
67186;HTU21D;54116;53.518;49.398;2023-12-29T07:40:13;-16.33;118.99
67186;HTU21D;54116;53.518;49.398;2023-12-29T07:42:40;-16.32;118.99
67186;HTU21D;54116;53.518;49.398;2023-12-29T07:45:07;-16.12;118.99
67186;HTU21D;54116;53.518;49.398;2023-12-29T07:47:34;-16.07;118.99
67186;HTU21D;54116;53.518;49.398;2023-12-29T07:50:01;-15.92;118.99
67186;HTU21D;54116;53.518;49.398;2023-12-29T07:52:27;-15.94;118.99
67186;HTU21D;54116;53.518;49.398;2023-12-29T07:54:53;-15.97;118.99
67186;HTU21D;54116;53.518;49.398;2023-12-29T07:57:19;-16.19;118.99
67186;HTU21D;54116;53.518;49.398;2023-12-29T07:59:45;-15.94;118.99
67186;HTU21D;54116;53.518;49.398;2023-12-29T08:02:11;-16.06;118.99
67186;HTU21D;54116;53.518;49.398;2023-12-29T08:04:37;-15.84;118.99
67186;HTU21D;54116;53.518;49.398;2023-12-29T08:07:04;-15.78;118.99
67186;HTU21D;54116;53.518;49.398;2023-12-29T08:09:30;-16.10;118.99
67186;HTU21D;54116;53.518;49.398;2023-12-29T08:11:56;-16.00;118.99
67186;HTU21D;54116;53.518;49.398;2023-12-29T08:14:22;-15.93;118.99
67186;HTU21D;54116;53.518;49.398;2023-12-29T08:16:48;-16.02;118.99
67186;HTU21D;54116;53.518;49.398;2023-12-29T08:19:14;-16.17;118.99
67186;HTU21D;54116;53.518;49.398;2023-12-29T08:21:41;-16.26;118.99
67186;HTU21D;54116;53.518;49.398;2023-12-29T08:24:08;-16.21;118.99
67186;HTU21D;54116;53.518;49.398;2023-12-29T08:26:34;-16.22;118.99
67186;HTU21D;54116;53.518;49.398;2023-12-29T08:29:00;-15.98;118.99
67186;HTU21D;54116;53.518;49.398;2023-12-29T08:31:26;-16.07;118.99
67186;HTU21D;54116;53.518;49.398;2023-12-29T08:33:54;-15.95;118.99
67186;HTU21D;54116;53.518;49.398;2023-12-29T08:36:21;-15.91;118.99
67186;HTU21D;54116;53.518;49.398;2023-12-29T08:38:47;-15.80;118.99
67186;HTU21D;54116;53.518;49.398;2023-12-29T08:41:16;-15.67;118.99
67186;HTU21D;54116;53.518;49.398;2023-12-29T08:43:42;-15.65;118.99
67186;HTU21D;54116;53.518;49.398;2023-12-29T08:46:08;-15.51;118.99
67186;HTU21D;54116;53.518;49.398;2023-12-29T08:48:34;-15.59;118.99
67186;HTU21D;54116;53.518;49.398;2023-12-29T08:51:00;-15.50;118.99
67186;HTU21D;54116;53.518;49.398;2023-12-29T08:53:27;-15.49;118.99
67186;HTU21D;54116;53.518;49.398;2023-12-29T08:55:53;-15.50;118.99
67186;HTU21D;54116;53.518;49.398;2023-12-29T08:58:19;-15.56;118.99
67186;HTU21D;54116;53.518;49.398;2023-12-29T09:00:45;-15.62;118.99
67186;HTU21D;54116;53.518;49.398;2023-12-29T09:03:11;-15.54;118.99
67186;HTU21D;54116;53.518;49.398;2023-12-29T09:05:37;-15.51;118.99
67186;HTU21D;54116;53.518;49.398;2023-12-29T09:08:03;-15.47;118.99
67186;HTU21D;54116;53.518;49.398;2023-12-29T09:10:30;-15.41;118.99
67186;HTU21D;54116;53.518;49.398;2023-12-29T09:12:56;-15.39;118.99
67186;HTU21D;54116;53.518;49.398;2023-12-29T09:15:22;-15.61;118.99
67186;HTU21D;54116;53.518;49.398;2023-12-29T09:17:48;-15.49;118.99
67186;HTU21D;54116;53.518;49.398;2023-12-29T09:20:15;-15.47;118.99
67186;HTU21D;54116;53.518;49.398;2023-12-29T09:22:42;-15.46;118.99
67186;HTU21D;54116;53.518;49.398;2023-12-29T09:25:08;-15.40;118.99
67186;HTU21D;54116;53.518;49.398;2023-12-29T09:27:34;-15.28;118.99
67186;HTU21D;54116;53.518;49.398;2023-12-29T09:30:00;-15.40;118.99
67186;HTU21D;54116;53.518;49.398;2023-12-29T09:32:26;-15.44;118.99
67186;HTU21D;54116;53.518;49.398;2023-12-29T09:34:52;-15.45;118.99
67186;HTU21D;54116;53.518;49.398;2023-12-29T09:37:19;-15.43;118.99
67186;HTU21D;54116;53.518;49.398;2023-12-29T09:39:45;-15.45;118.99
67186;HTU21D;54116;53.518;49.398;2023-12-29T09:42:18;-15.20;118.99
67186;HTU21D;54116;53.518;49.398;2023-12-29T09:44:48;-15.53;118.99
67186;HTU21D;54116;53.518;49.398;2023-12-29T09:47:24;-15.60;118.99
67186;HTU21D;54116;53.518;49.398;2023-12-29T09:49:52;-15.59;118.99
67186;HTU21D;54116;53.518;49.398;2023-12-29T09:52:20;-15.69;118.99
67186;HTU21D;54116;53.518;49.398;2023-12-29T09:54:51;-15.73;118.99
67186;HTU21D;54116;53.518;49.398;2023-12-29T09:57:18;-15.77;118.99
67186;HTU21D;54116;53.518;49.398;2023-12-29T09:59:44;-15.81;118.99
67186;HTU21D;54116;53.518;49.398;2023-12-29T10:02:17;-15.72;118.99
67186;HTU21D;54116;53.518;49.398;2023-12-29T10:04:43;-15.83;118.99
67186;HTU21D;54116;53.518;49.398;2023-12-29T10:07:15;-15.85;118.99
67186;HTU21D;54116;53.518;49.398;2023-12-29T10:09:45;-15.92;118.99
67186;HTU21D;54116;53.518;49.398;2023-12-29T10:12:13;-16.00;118.99
67186;HTU21D;54116;53.518;49.398;2023-12-29T10:14:48;-15.79;118.99
67186;HTU21D;54116;53.518;49.398;2023-12-29T10:22:59;-15.93;118.99
67186;HTU21D;54116;53.518;49.398;2023-12-29T10:25:30;-16.07;118.99
67186;HTU21D;54116;53.518;49.398;2023-12-29T10:27:57;-16.02;118.99
67186;HTU21D;54116;53.518;49.398;2023-12-29T10:30:24;-16.03;118.99
67186;HTU21D;54116;53.518;49.398;2023-12-29T10:32:52;-16.09;118.99
67186;HTU21D;54116;53.518;49.398;2023-12-29T10:35:19;-16.08;118.99
67186;HTU21D;54116;53.518;49.398;2023-12-29T10:37:45;-16.10;118.99
67186;HTU21D;54116;53.518;49.398;2023-12-29T10:40:19;-16.04;118.99
67186;HTU21D;54116;53.518;49.398;2023-12-29T10:42:52;-15.88;118.99
67186;HTU21D;54116;53.518;49.398;2023-12-29T10:45:18;-15.77;118.99
67186;HTU21D;54116;53.518;49.398;2023-12-29T10:47:44;-15.91;118.99
67186;HTU21D;54116;53.518;49.398;2023-12-29T10:50:11;-15.89;118.99
67186;HTU21D;54116;53.518;49.398;2023-12-29T10:52:37;-16.06;118.99
67186;HTU21D;54116;53.518;49.398;2023-12-29T10:55:08;-16.06;118.99
67186;HTU21D;54116;53.518;49.398;2023-12-29T10:57:38;-16.03;118.99
67186;HTU21D;54116;53.518;49.398;2023-12-29T11:00:06;-15.97;118.99
67186;HTU21D;54116;53.518;49.398;2023-12-29T11:02:34;-16.00;118.99
67186;HTU21D;54116;53.518;49.398;2023-12-29T11:05:05;-16.00;118.99
67186;HTU21D;54116;53.518;49.398;2023-12-29T11:07:33;-16.11;118.99
67186;HTU21D;54116;53.518;49.398;2023-12-29T11:10:01;-16.14;118.99
67186;HTU21D;54116;53.518;49.398;2023-12-29T11:12:31;-16.17;118.99
67186;HTU21D;54116;53.518;49.398;2023-12-29T11:14:58;-16.09;118.99
67186;HTU21D;54116;53.518;49.398;2023-12-29T11:17:26;-16.13;118.99
67186;HTU21D;54116;53.518;49.398;2023-12-29T11:19:52;-16.10;118.99
67186;HTU21D;54116;53.518;49.398;2023-12-29T11:22:18;-16.17;118.99
67186;HTU21D;54116;53.518;49.398;2023-12-29T11:24:47;-16.09;118.99
67186;HTU21D;54116;53.518;49.398;2023-12-29T11:27:13;-16.22;118.99
67186;HTU21D;54116;53.518;49.398;2023-12-29T11:29:40;-16.12;118.99
67186;HTU21D;54116;53.518;49.398;2023-12-29T11:32:12;-16.27;118.99
67186;HTU21D;54116;53.518;49.398;2023-12-29T11:34:51;-16.22;118.99
67186;HTU21D;54116;53.518;49.398;2023-12-29T11:37:43;-16.25;118.99
67186;HTU21D;54116;53.518;49.398;2023-12-29T11:40:41;-16.34;118.99
67186;HTU21D;54116;53.518;49.398;2023-12-29T11:43:12;-16.36;118.99
67186;HTU21D;54116;53.518;49.398;2023-12-29T11:45:39;-16.44;118.99
67186;HTU21D;54116;53.518;49.398;2023-12-29T11:48:05;-16.47;118.99
67186;HTU21D;54116;53.518;49.398;2023-12-29T11:50:32;-16.51;118.99
67186;HTU21D;54116;53.518;49.398;2023-12-29T11:52:59;-16.51;118.99
67186;HTU21D;54116;53.518;49.398;2023-12-29T11:55:37;-16.50;118.99
67186;HTU21D;54116;53.518;49.398;2023-12-29T11:58:05;-16.54;118.99
67186;HTU21D;54116;53.518;49.398;2023-12-29T12:00:48;-16.50;118.99
67186;HTU21D;54116;53.518;49.398;2023-12-29T12:05:47;-16.52;118.99
67186;HTU21D;54116;53.518;49.398;2023-12-29T12:08:32;-16.49;118.99
67186;HTU21D;54116;53.518;49.398;2023-12-29T12:13:59;-16.58;118.99
67186;HTU21D;54116;53.518;49.398;2023-12-29T12:19:14;-16.57;118.99
67186;HTU21D;54116;53.518;49.398;2023-12-29T12:21:40;-16.58;118.99
67186;HTU21D;54116;53.518;49.398;2023-12-29T12:24:07;-16.65;118.99
67186;HTU21D;54116;53.518;49.398;2023-12-29T12:26:34;-16.67;118.99
67186;HTU21D;54116;53.518;49.398;2023-12-29T12:29:00;-16.69;118.99
67186;HTU21D;54116;53.518;49.398;2023-12-29T12:31:26;-16.65;118.99
67186;HTU21D;54116;53.518;49.398;2023-12-29T12:33:54;-16.65;118.99
67186;HTU21D;54116;53.518;49.398;2023-12-29T12:36:21;-16.47;118.99
67186;HTU21D;54116;53.518;49.398;2023-12-29T12:38:54;-16.52;118.99
67186;HTU21D;54116;53.518;49.398;2023-12-29T12:41:24;-16.32;118.99
67186;HTU21D;54116;53.518;49.398;2023-12-29T12:44:00;-16.50;118.99
67186;HTU21D;54116;53.518;49.398;2023-12-29T12:46:34;-16.61;118.99
67186;HTU21D;54116;53.518;49.398;2023-12-29T12:49:02;-16.66;118.99
67186;HTU21D;54116;53.518;49.398;2023-12-29T12:51:30;-16.58;118.99
67186;HTU21D;54116;53.518;49.398;2023-12-29T12:53:57;-16.62;118.99
67186;HTU21D;54116;53.518;49.398;2023-12-29T12:56:23;-16.76;118.99
67186;HTU21D;54116;53.518;49.398;2023-12-29T12:58:57;-16.82;118.99
67186;HTU21D;54116;53.518;49.398;2023-12-29T13:01:27;-16.49;118.99
67186;HTU21D;54116;53.518;49.398;2023-12-29T13:03:55;-16.73;118.99
67186;HTU21D;54116;53.518;49.398;2023-12-29T13:06:22;-16.66;118.99
67186;HTU21D;54116;53.518;49.398;2023-12-29T13:08:50;-16.78;118.99
67186;HTU21D;54116;53.518;49.398;2023-12-29T13:11:21;-16.80;118.99
67186;HTU21D;54116;53.518;49.398;2023-12-29T13:13:53;-16.95;118.99
67186;HTU21D;54116;53.518;49.398;2023-12-29T13:18:55;-16.83;118.99
67186;HTU21D;54116;53.518;49.398;2023-12-29T13:21:21;-16.92;118.99
67186;HTU21D;54116;53.518;49.398;2023-12-29T13:23:49;-16.74;118.99
67186;HTU21D;54116;53.518;49.398;2023-12-29T13:26:18;-16.87;118.99
67186;HTU21D;54116;53.518;49.398;2023-12-29T13:28:45;-16.80;118.99
67186;HTU21D;54116;53.518;49.398;2023-12-29T13:31:12;-16.86;118.99
67186;HTU21D;54116;53.518;49.398;2023-12-29T13:36:53;-17.00;118.99
67186;HTU21D;54116;53.518;49.398;2023-12-29T13:39:38;-16.89;118.99
67186;HTU21D;54116;53.518;49.398;2023-12-29T13:42:07;-16.98;118.99
67186;HTU21D;54116;53.518;49.398;2023-12-29T13:44:36;-16.91;118.99
67186;HTU21D;54116;53.518;49.398;2023-12-29T13:47:04;-16.91;118.99
67186;HTU21D;54116;53.518;49.398;2023-12-29T13:49:31;-16.96;118.99
67186;HTU21D;54116;53.518;49.398;2023-12-29T13:52:03;-17.01;118.99
67186;HTU21D;54116;53.518;49.398;2023-12-29T13:54:30;-16.88;118.99
67186;HTU21D;54116;53.518;49.398;2023-12-29T13:56:56;-16.66;118.99
67186;HTU21D;54116;53.518;49.398;2023-12-29T13:59:29;-16.77;118.99
67186;HTU21D;54116;53.518;49.398;2023-12-29T14:02:19;-16.70;118.99
67186;HTU21D;54116;53.518;49.398;2023-12-29T14:04:47;-16.46;118.99
67186;HTU21D;54116;53.518;49.398;2023-12-29T14:07:14;-16.61;118.99
67186;HTU21D;54116;53.518;49.398;2023-12-29T14:09:41;-16.56;118.99
67186;HTU21D;54116;53.518;49.398;2023-12-29T14:12:07;-16.72;118.99
67186;HTU21D;54116;53.518;49.398;2023-12-29T14:14:33;-16.63;118.99
67186;HTU21D;54116;53.518;49.398;2023-12-29T14:17:04;-16.73;118.99
67186;HTU21D;54116;53.518;49.398;2023-12-29T14:19:36;-16.70;118.99
67186;HTU21D;54116;53.518;49.398;2023-12-29T14:22:04;-16.71;118.99
67186;HTU21D;54116;53.518;49.398;2023-12-29T14:24:30;-16.56;118.99
67186;HTU21D;54116;53.518;49.398;2023-12-29T14:26:57;-16.59;118.99
67186;HTU21D;54116;53.518;49.398;2023-12-29T14:29:25;-16.50;118.99
67186;HTU21D;54116;53.518;49.398;2023-12-29T14:31:51;-16.55;118.99
67186;HTU21D;54116;53.518;49.398;2023-12-29T14:34:18;-16.44;118.99
67186;HTU21D;54116;53.518;49.398;2023-12-29T14:36:44;-16.49;118.99
67186;HTU21D;54116;53.518;49.398;2023-12-29T14:39:11;-16.51;118.99
67186;HTU21D;54116;53.518;49.398;2023-12-29T14:41:39;-16.52;118.99
67186;HTU21D;54116;53.518;49.398;2023-12-29T14:44:05;-16.50;118.99
67186;HTU21D;54116;53.518;49.398;2023-12-29T14:46:31;-16.49;118.99
67186;HTU21D;54116;53.518;49.398;2023-12-29T14:49:00;-16.56;118.99
67186;HTU21D;54116;53.518;49.398;2023-12-29T14:51:26;-16.48;118.99
67186;HTU21D;54116;53.518;49.398;2023-12-29T14:53:52;-16.40;118.99
67186;HTU21D;54116;53.518;49.398;2023-12-29T14:56:18;-16.43;118.99
67186;HTU21D;54116;53.518;49.398;2023-12-29T14:58:44;-16.56;118.99
67186;HTU21D;54116;53.518;49.398;2023-12-29T15:01:11;-16.55;118.99